Terminal Aerodrome Forecast
Issued by NWS Newport/Morehead City, NC

Home | Current Version | Previous Version | Text Only | Print | Product List | Glossary On
Versions: 1 2 3 4 5 6 7 8 9 10 11 12
566
FTUS42 KMHX 211134
TAFEWN
TAF
KEWN 211134Z 2112/2212 02004KT P6SM SKC
      TEMPO 2112/2113 4SM BR
     FM211600 04006KT P6SM SCT050
     FM220500 VRB02KT P6SM SKC=

USA.gov is the U.S. government's official web portal to all federal, state and local government web resources and services.